Time;durP1;ratioP1;P1;durP2;ratioP2;P2;SDS_P1;SDS_P2;PMS_P1;PMS_P2;Temp;Humidity;BMP_temperature;BMP_pressure;BME280_temperature;BME280_humidity;BME280_pressure;Samples;Min_cycle;Max_cycle;Signal;HPM_P1;HPM_P2
2022/12/01 00:01:17;;;;;;;91.45;44.08;;;5.50;91.80;;;;;;5034444;28;20310;-45
2022/12/01 00:03:47;;;;;;;87.05;41.97;;;5.50;91.90;;;;;;5042365;28;20125;-45
2022/12/01 00:06:18;;;;;;;91.38;45.80;;;5.50;92.00;;;;;;5055381;28;20021;-43
2022/12/01 00:11:33;;;;;;;85.07;43.17;;;5.50;92.20;;;;;;5055466;28;20117;-47
2022/12/01 00:14:00;;;;;;;88.68;44.63;;;5.50;92.20;;;;;;5035892;28;20064;-46
2022/12/01 00:16:27;;;;;;;91.80;46.03;;;5.60;92.20;;;;;;5055665;28;20044;-45
2022/12/01 00:18:54;;;;;;;89.90;43.65;;;5.50;92.20;;;;;;5050585;28;20307;-44
2022/12/01 00:21:23;;;;;;;89.05;47.22;;;5.50;92.20;;;;;;5054738;28;20036;-43
2022/12/01 00:23:58;;;;;;;90.88;44.80;;;5.50;92.40;;;;;;5043297;28;20047;-43
2022/12/01 00:26:26;;;;;;;96.07;46.67;;;5.50;92.30;;;;;;5046156;28;20021;-46
2022/12/01 00:28:56;;;;;;;98.25;46.05;;;5.50;92.40;;;;;;5053027;28;20034;-47
2022/12/01 00:31:23;;;;;;;98.18;46.25;;;5.50;92.40;;;;;;5035682;28;20041;-44
2022/12/01 00:33:52;;;;;;;91.45;45.47;;;5.50;92.40;;;;;;5040545;28;20028;-49
2022/12/01 00:36:21;;;;;;;102.30;48.80;;;5.50;92.50;;;;;;5043598;28;20033;-47
2022/12/01 00:38:53;;;;;;;93.30;47.65;;;5.50;92.60;;;;;;5036261;28;20029;-43
2022/12/01 00:41:22;;;;;;;100.60;45.97;;;5.50;92.70;;;;;;5055118;28;20534;-45
2022/12/01 00:43:52;;;;;;;107.05;47.80;;;5.50;92.70;;;;;;5043181;28;20040;-42
2022/12/01 00:46:19;;;;;;;98.65;46.97;;;5.50;92.70;;;;;;5055388;28;20013;-48
2022/12/01 00:48:46;;;;;;;105.50;48.25;;;5.50;92.80;;;;;;5041547;28;20457;-45
2022/12/01 00:51:15;;;;;;;106.22;47.28;;;5.50;92.70;;;;;;5042617;28;20371;-43
2022/12/01 00:53:41;;;;;;;109.05;47.13;;;5.60;92.80;;;;;;5034600;28;20036;-43
2022/12/01 00:56:11;;;;;;;110.65;47.78;;;5.60;92.80;;;;;;5048371;28;20025;-43
2022/12/01 00:58:38;;;;;;;110.63;49.72;;;5.60;92.80;;;;;;5052671;28;20347;-45
2022/12/01 01:01:04;;;;;;;107.45;47.13;;;5.60;92.90;;;;;;5043773;28;20033;-46
2022/12/01 01:03:31;;;;;;;101.63;45.47;;;5.60;92.90;;;;;;5051953;28;20021;-47
2022/12/01 01:06:10;;;;;;;96.07;48.75;;;5.50;92.90;;;;;;5051710;28;20108;-45
2022/12/01 01:08:36;;;;;;;104.97;49.38;;;5.50;93.00;;;;;;5035044;28;20410;-42
2022/12/01 01:11:05;;;;;;;105.43;49.20;;;5.60;93.00;;;;;;5035509;28;20025;-42
2022/12/01 01:13:33;;;;;;;101.70;48.42;;;5.50;93.00;;;;;;5036835;28;20025;-47
2022/12/01 01:16:05;;;;;;;111.40;49.08;;;5.50;93.10;;;;;;5035777;28;20331;-45
2022/12/01 01:18:33;;;;;;;102.45;49.75;;;5.50;93.10;;;;;;5045395;28;20033;-47
2022/12/01 01:21:06;;;;;;;96.43;47.33;;;5.50;93.10;;;;;;5037614;28;20029;-49
2022/12/01 01:23:33;;;;;;;101.63;49.38;;;5.50;93.20;;;;;;5036801;28;20029;-49
2022/12/01 01:26:09;;;;;;;106.75;48.33;;;5.50;93.20;;;;;;5053792;28;20124;-43
2022/12/01 01:28:37;;;;;;;107.78;47.83;;;5.50;93.20;;;;;;5039316;28;20032;-44
2022/12/01 01:31:11;;;;;;;99.22;46.70;;;5.50;93.30;;;;;;5033814;28;20116;-43
2022/12/01 01:33:43;;;;;;;103.05;45.08;;;5.60;93.30;;;;;;5034553;28;20052;-43
2022/12/01 01:36:12;;;;;;;104.00;46.53;;;5.60;93.20;;;;;;5045929;28;20041;-42
2022/12/01 01:38:42;;;;;;;;;;;5.60;93.30;;;;;;5034404;28;20033;-44
2022/12/01 01:41:09;;;;;;;94.13;46.00;;;5.60;93.30;;;;;;5035426;28;19905;-44
2022/12/01 01:43:50;;;;;;;97.93;46.20;;;5.60;93.30;;;;;;5054362;28;20410;-47
2022/12/01 01:46:24;;;;;;;91.28;45.03;;;5.60;93.30;;;;;;5051614;28;20450;-43
2022/12/01 01:49:03;;;;;;;96.07;44.08;;;5.60;93.40;;;;;;5054333;28;20060;-43
2022/12/01 01:51:47;;;;;;;88.60;42.77;;;5.60;93.40;;;;;;5037140;28;20048;-43
2022/12/01 01:54:22;;;;;;;103.95;44.95;;;5.60;93.30;;;;;;5028014;28;20346;-46
2022/12/01 01:56:53;;;;;;;104.60;45.47;;;5.50;93.30;;;;;;5018032;28;20030;-44
2022/12/01 01:59:27;;;;;;;100.05;44.50;;;5.60;93.40;;;;;;5015506;28;20041;-43
2022/12/01 02:02:04;;;;;;;92.22;44.28;;;5.60;93.40;;;;;;5014105;28;20451;-44
2022/12/01 02:04:46;;;;;;;95.45;44.38;;;5.60;93.40;;;;;;5014360;28;20033;-44
2022/12/01 02:07:19;;;;;;;86.65;44.63;;;5.60;93.40;;;;;;5023380;28;20056;-43
2022/12/01 02:09:46;;;;;;;94.35;45.10;;;5.60;93.40;;;;;;5014366;28;20360;-44
2022/12/01 02:12:37;;;;;;;82.10;38.78;;;5.60;93.40;;;;;;5014082;28;20040;-47
2022/12/01 02:15:31;;;;;;;87.53;41.13;;;5.60;93.40;;;;;;5014892;28;20076;-45
2022/12/01 02:18:08;;;;;;;89.05;42.03;;;5.60;93.30;;;;;;5014072;28;20032;-45
2022/12/01 02:21:13;;;;;;;82.43;38.25;;;5.70;93.30;;;;;;5018176;28;20104;-47
2022/12/01 02:24:06;;;;;;;77.05;38.58;;;5.60;93.30;;;;;;5020138;28;20025;-44
2022/12/01 02:27:26;;;;;;;70.82;36.88;;;5.60;93.40;;;;;;4998230;28;20038;-43
2022/12/01 02:30:10;;;;;;;;;;;5.60;93.30;;;;;;4953150;29;20067;-43
2022/12/01 02:33:13;;;;;;;80.43;35.22;;;5.60;93.40;;;;;;4953521;29;20167;-44
2022/12/01 02:36:10;;;;;;;68.20;35.80;;;5.60;93.30;;;;;;4931762;28;20452;-44
2022/12/01 02:39:01;;;;;;;69.13;35.45;;;5.60;93.30;;;;;;4955758;28;20035;-44
2022/12/01 02:41:38;;;;;;;63.95;33.50;;;5.60;93.30;;;;;;4953490;28;20043;-46
2022/12/01 02:44:30;;;;;;;68.10;33.20;;;5.60;93.40;;;;;;4952406;28;20030;-47
2022/12/01 02:47:19;;;;;;;68.82;35.60;;;5.60;93.30;;;;;;4952231;28;20119;-45
2022/12/01 02:49:49;;;;;;;66.65;33.97;;;5.60;93.30;;;;;;4953013;29;20054;-46
2022/12/01 02:52:19;;;;;;;73.32;34.55;;;5.60;93.20;;;;;;4952987;28;20035;-43
2022/12/01 02:54:49;;;;;;;66.10;36.45;;;5.60;93.20;;;;;;4972803;28;20491;-43
2022/12/01 02:57:17;;;;;;;62.50;35.22;;;5.60;93.30;;;;;;4991864;28;20137;-44
2022/12/01 02:59:49;;;;;;;70.05;35.63;;;5.60;93.20;;;;;;4993183;28;20133;-44
2022/12/01 03:02:42;;;;;;;69.43;35.80;;;5.60;93.20;;;;;;5015458;28;20028;-45
2022/12/01 03:05:38;;;;;;;64.45;32.60;;;5.70;93.20;;;;;;4977163;28;20100;-43
2022/12/01 03:08:30;;;;;;;81.95;38.22;;;5.60;93.10;;;;;;5015905;28;20088;-44
2022/12/01 03:10:57;;;;;;;80.38;37.83;;;5.70;93.20;;;;;;5015286;28;20245;-48
2022/12/01 03:14:01;;;;;;;82.75;39.35;;;5.70;93.10;;;;;;5014845;28;20045;-43
2022/12/01 03:16:37;;;;;;;78.78;37.33;;;5.70;93.10;;;;;;5032856;28;20030;-44
2022/12/01 03:19:40;;;;;;;76.78;39.70;;;5.70;93.10;;;;;;5036727;28;20029;-43
2022/12/01 03:22:27;;;;;;;72.25;37.95;;;5.70;93.00;;;;;;5018156;28;20068;-43
2022/12/01 03:24:55;;;;;;;75.22;35.17;;;5.60;92.90;;;;;;5037251;28;20087;-44
2022/12/01 03:27:30;;;;;;;74.68;36.58;;;5.60;92.90;;;;;;5003060;28;20064;-44
2022/12/01 03:29:59;;;;;;;65.22;33.70;;;5.70;93.00;;;;;;5014024;28;20533;-44
2022/12/01 03:32:52;;;;;;;69.07;35.70;;;5.60;92.80;;;;;;5027173;28;20083;-43
2022/12/01 03:35:42;;;;;;;65.65;34.72;;;5.70;92.80;;;;;;5035721;28;20079;-44
2022/12/01 03:38:25;;;;;;;73.80;33.03;;;5.60;92.80;;;;;;5035378;28;20056;-44
2022/12/01 03:40:57;;;;;;;63.67;33.22;;;5.60;92.80;;;;;;5006816;28;20045;-45
2022/12/01 03:43:34;;;;;;;64.57;34.15;;;5.60;92.80;;;;;;5017827;28;20026;-44
2022/12/01 03:46:24;;;;;;;60.15;33.00;;;5.60;92.70;;;;;;5036791;28;20018;-45
2022/12/01 03:48:53;;;;;;;61.20;32.10;;;5.60;92.80;;;;;;5018520;28;20108;-48
2022/12/01 03:52:05;;;;;;;54.60;29.17;;;5.60;92.80;;;;;;5036515;28;20589;-43
2022/12/01 03:54:56;;;;;;;55.60;29.63;;;5.60;92.80;;;;;;4999635;28;20042;-44
2022/12/01 03:57:58;;;;;;;63.40;33.50;;;5.50;92.70;;;;;;5016363;28;20080;-49
2022/12/01 04:00:26;;;;;;;58.45;31.73;;;5.60;92.70;;;;;;5016529;28;20164;-45
2022/12/01 04:03:02;;;;;;;62.75;35.22;;;5.60;92.70;;;;;;5026772;28;20115;-46
2022/12/01 04:05:33;;;;;;;64.13;35.75;;;5.60;92.70;;;;;;5020976;28;20034;-44
2022/12/01 04:08:03;;;;;;;82.00;40.90;;;5.70;92.70;;;;;;5003734;28;20040;-44
2022/12/01 04:10:29;;;;;;;76.75;38.60;;;5.70;92.70;;;;;;5016491;28;20580;-44
2022/12/01 04:12:58;;;;;;;76.18;38.30;;;5.70;92.60;;;;;;5018405;28;20052;-47
2022/12/01 04:15:28;;;;;;;69.38;35.83;;;5.60;92.60;;;;;;5031881;28;20120;-43
2022/12/01 04:17:54;;;;;;;;;;;5.60;92.50;;;;;;5016657;28;20038;-43
2022/12/01 04:20:21;;;;;;;67.25;32.90;;;5.60;92.60;;;;;;5015829;28;19909;-46
2022/12/01 04:22:50;;;;;;;68.60;37.10;;;5.60;92.50;;;;;;5024454;28;20100;-47
2022/12/01 04:25:17;;;;;;;61.92;35.88;;;5.60;92.60;;;;;;5018452;28;20072;-42
2022/12/01 04:27:43;;;;;;;70.85;36.97;;;5.60;92.50;;;;;;5034191;28;20025;-44
2022/12/01 04:30:11;;;;;;;64.47;35.65;;;5.60;92.40;;;;;;5030752;28;20029;-44
2022/12/01 04:32:43;;;;;;;64.07;34.35;;;5.60;92.40;;;;;;5035787;28;20737;-44
2022/12/01 04:35:11;;;;;;;61.70;33.58;;;5.50;92.40;;;;;;5021733;28;20063;-43
2022/12/01 04:37:38;;;;;;;68.25;37.42;;;5.50;92.30;;;;;;5030642;28;20053;-48
2022/12/01 04:40:07;;;;;;;73.50;36.08;;;5.50;92.40;;;;;;5021058;28;20034;-43
2022/12/01 04:42:36;;;;;;;64.37;34.03;;;5.50;92.30;;;;;;5015812;28;20026;-45
2022/12/01 04:45:03;;;;;;;62.80;34.58;;;5.50;92.30;;;;;;5015815;28;20347;-48
2022/12/01 04:47:31;;;;;;;64.65;34.70;;;5.50;92.30;;;;;;5015690;28;20033;-48
2022/12/01 04:49:56;;;;;;;64.05;34.63;;;5.50;92.20;;;;;;5032925;28;20036;-45
2022/12/01 04:52:26;;;;;;;58.50;32.88;;;5.40;92.10;;;;;;5025578;28;20030;-44
2022/12/01 04:54:53;;;;;;;53.85;31.52;;;5.40;92.00;;;;;;5044515;28;20041;-43
2022/12/01 04:57:20;;;;;;;50.50;29.48;;;5.40;91.90;;;;;;5037625;28;20065;-46
2022/12/01 04:59:49;;;;;;;51.97;30.08;;;5.40;91.90;;;;;;5036887;28;20033;-44
2022/12/01 05:02:16;;;;;;;53.97;31.75;;;5.40;91.90;;;;;;5053941;28;20025;-43
2022/12/01 05:04:47;;;;;;;55.53;31.77;;;5.30;91.80;;;;;;5051897;28;20025;-43
2022/12/01 05:07:13;;;;;;;50.70;29.23;;;5.30;91.70;;;;;;5032192;28;20025;-47
2022/12/01 05:09:40;;;;;;;52.30;31.13;;;5.40;91.80;;;;;;5017489;28;20029;-46
2022/12/01 05:12:07;;;;;;;56.53;32.05;;;5.30;91.80;;;;;;5017450;28;20033;-46
2022/12/01 05:14:34;;;;;;;52.22;30.60;;;5.30;91.70;;;;;;5038429;28;20029;-47
2022/12/01 05:17:01;;;;;;;56.63;32.50;;;5.40;91.70;;;;;;5033372;28;20041;-44
2022/12/01 05:22:13;;;;;;;59.50;34.70;;;5.40;91.70;;;;;;5034680;28;20036;-45
2022/12/01 05:24:40;;;;;;;59.38;33.00;;;5.40;91.80;;;;;;5034700;28;20025;-48
2022/12/01 05:27:07;;;;;;;58.95;33.00;;;5.40;91.70;;;;;;5036257;28;20037;-49
2022/12/01 05:29:34;;;;;;;57.33;31.80;;;5.40;91.80;;;;;;5054510;28;20056;-45
2022/12/01 05:32:01;;;;;;;60.00;33.50;;;5.40;91.80;;;;;;5038398;28;20423;-44
2022/12/01 05:34:29;;;;;;;56.67;32.75;;;5.40;91.80;;;;;;5034955;28;20078;-46
2022/12/01 05:36:55;;;;;;;56.95;34.15;;;5.40;91.80;;;;;;5053714;28;20107;-43
2022/12/01 05:39:21;;;;;;;60.15;33.35;;;5.40;92.00;;;;;;5038684;28;20028;-45
2022/12/01 05:41:47;;;;;;;65.55;34.13;;;5.40;92.00;;;;;;5042121;28;20403;-44
2022/12/01 05:44:14;;;;;;;68.13;34.08;;;5.40;92.00;;;;;;5034442;28;20033;-44
2022/12/01 05:46:41;;;;;;;67.55;35.13;;;5.40;92.00;;;;;;5035836;28;20025;-46
2022/12/01 05:49:07;;;;;;;61.55;33.97;;;5.40;92.10;;;;;;5051838;28;20090;-44
2022/12/01 05:51:34;;;;;;;63.80;34.65;;;5.30;92.20;;;;;;5050900;28;20432;-45
2022/12/01 05:54:02;;;;;;;58.38;32.30;;;5.30;92.30;;;;;;5054120;28;20029;-44
2022/12/01 05:56:31;;;;;;;62.97;34.38;;;5.30;92.30;;;;;;5059390;28;20049;-48
2022/12/01 05:58:58;;;;;;;55.13;32.45;;;5.30;92.30;;;;;;5053223;28;20041;-48
2022/12/01 06:01:25;;;;;;;65.55;34.08;;;5.40;92.30;;;;;;5036007;28;20028;-45
2022/12/01 06:03:53;;;;;;;58.28;32.92;;;5.30;92.30;;;;;;5053241;28;20025;-44
2022/12/01 06:06:19;;;;;;;51.40;30.13;;;5.30;92.30;;;;;;5053609;28;20053;-45
2022/12/01 06:08:49;;;;;;;58.85;32.38;;;5.30;92.20;;;;;;5053277;28;20075;-45
2022/12/01 06:11:17;;;;;;;54.67;30.90;;;5.30;92.10;;;;;;5049475;28;20043;-45
2022/12/01 06:13:44;;;;;;;58.33;31.85;;;5.30;92.20;;;;;;5034297;28;20033;-48
2022/12/01 06:16:10;;;;;;;59.10;33.88;;;5.30;92.20;;;;;;5051009;28;20033;-43
2022/12/01 06:18:37;;;;;;;64.80;35.05;;;5.30;92.10;;;;;;5052796;28;20350;-46
2022/12/01 06:21:05;;;;;;;59.30;33.08;;;5.30;92.20;;;;;;5052066;28;20974;-47
2022/12/01 06:23:33;;;;;;;60.63;34.42;;;5.30;92.20;;;;;;5049711;28;20349;-44
2022/12/01 06:26:02;;;;;;;66.05;35.85;;;5.30;92.30;;;;;;5046818;28;20468;-49
2022/12/01 06:28:29;;;;;;;63.03;34.60;;;5.30;92.30;;;;;;5052991;28;20094;-47
2022/12/01 06:30:56;;;;;;;67.13;36.40;;;5.30;92.30;;;;;;5049910;28;20057;-46
2022/12/01 06:33:23;;;;;;;62.47;35.17;;;5.30;92.20;;;;;;5033570;28;20087;-43
2022/12/01 06:36:00;;;;;;;70.43;36.90;;;5.30;92.20;;;;;;5047790;28;20035;-47
2022/12/01 06:38:32;;;;;;;67.30;34.70;;;5.30;92.20;;;;;;5053237;28;20037;-45
2022/12/01 06:41:01;;;;;;;70.45;37.70;;;5.30;92.30;;;;;;5042366;28;20357;-46
2022/12/01 06:43:28;;;;;;;67.97;37.20;;;5.40;92.40;;;;;;5052411;28;20082;-43
2022/12/01 06:45:55;;;;;;;61.00;32.92;;;5.30;92.30;;;;;;5033860;28;20048;-47
2022/12/01 06:48:22;;;;;;;68.43;35.42;;;5.30;92.40;;;;;;5033077;28;20112;-45
2022/12/01 06:50:49;;;;;;;62.67;32.63;;;5.30;92.30;;;;;;5047867;28;20037;-45
2022/12/01 06:53:16;;;;;;;64.90;36.55;;;5.30;92.30;;;;;;5050335;28;20082;-45
2022/12/01 06:55:43;;;;;;;69.68;37.30;;;5.30;92.30;;;;;;5049034;28;20054;-47
2022/12/01 06:58:10;;;;;;;65.78;35.22;;;5.20;92.20;;;;;;5049416;28;20037;-46
2022/12/01 07:00:37;;;;;;;65.65;36.72;;;5.20;92.20;;;;;;5033498;28;20028;-46
2022/12/01 07:03:04;;;;;;;63.33;35.75;;;5.20;92.30;;;;;;5033031;28;20048;-45
2022/12/01 07:05:30;;;;;;;65.80;37.47;;;5.20;92.20;;;;;;5051148;28;20075;-45
2022/12/01 07:07:57;;;;;;;71.05;38.97;;;5.20;92.20;;;;;;5043236;28;20036;-45
2022/12/01 07:10:24;;;;;;;66.65;37.53;;;5.20;92.20;;;;;;5034861;28;20059;-47
2022/12/01 07:12:51;;;;;;;68.45;37.22;;;5.20;92.30;;;;;;5032698;28;20025;-45
2022/12/01 07:15:17;;;;;;;60.00;34.22;;;5.20;92.10;;;;;;5033275;28;20462;-46
2022/12/01 07:17:43;;;;;;;60.30;36.25;;;5.20;92.10;;;;;;5052225;28;20033;-46
2022/12/01 07:20:11;;;;;;;54.20;33.63;;;5.20;92.20;;;;;;5050192;28;20021;-44
2022/12/01 07:22:41;;;;;;;59.25;34.83;;;5.20;92.00;;;;;;5048176;28;20033;-50
2022/12/01 07:25:08;;;;;;;55.55;34.65;;;5.20;92.00;;;;;;5050415;28;20100;-49
2022/12/01 07:27:34;;;;;;;55.28;35.22;;;5.20;92.00;;;;;;5039725;28;20099;-46
2022/12/01 07:30:01;;;;;;;56.67;34.08;;;5.20;92.10;;;;;;5031677;28;20025;-47
2022/12/01 07:32:27;;;;;;;54.10;35.55;;;5.20;92.00;;;;;;5038079;28;20086;-46
2022/12/01 07:34:53;;;;;;;58.90;31.83;;;5.20;92.10;;;;;;5043323;28;20037;-43
2022/12/01 07:37:22;;;;;;;53.33;34.80;;;5.20;92.00;;;;;;5050222;28;20757;-46
2022/12/01 07:39:53;;;;;;;55.47;34.58;;;5.20;92.10;;;;;;5037372;28;20044;-44
2022/12/01 07:42:19;;;;;;;54.13;34.17;;;5.20;92.10;;;;;;5032244;28;20034;-46
2022/12/01 07:44:46;;;;;;;53.25;32.80;;;5.20;92.10;;;;;;5033602;28;20166;-43
2022/12/01 07:47:13;;;;;;;59.78;35.15;;;5.30;92.00;;;;;;5051263;28;20029;-44
2022/12/01 07:49:40;;;;;;;49.70;32.97;;;5.20;91.90;;;;;;5028264;28;20171;-46
2022/12/01 07:52:07;;;;;;;48.03;32.10;;;5.20;92.00;;;;;;5048675;28;20029;-44
2022/12/01 07:54:35;;;;;;;53.42;32.67;;;5.20;92.00;;;;;;5051478;28;20059;-43
2022/12/01 07:57:02;;;;;;;46.53;32.30;;;5.20;91.90;;;;;;5044142;28;20029;-47
2022/12/01 07:59:29;;;;;;;50.63;33.70;;;5.20;91.90;;;;;;5046065;28;20033;-45
2022/12/01 08:01:55;;;;;;;51.83;33.72;;;5.20;91.90;;;;;;5048623;28;20029;-44
2022/12/01 08:04:21;;;;;;;47.42;31.77;;;5.20;91.80;;;;;;5049541;28;20104;-46
2022/12/01 08:06:47;;;;;;;53.05;34.55;;;5.20;92.00;;;;;;5050823;28;20174;-46
2022/12/01 08:09:16;;;;;;;51.10;34.28;;;5.30;92.00;;;;;;5047336;28;20467;-45
2022/12/01 08:11:46;;;;;;;50.80;34.10;;;5.30;92.00;;;;;;5035433;28;20349;-43
2022/12/01 08:14:13;;;;;;;;;;;5.30;92.10;;;;;;5040056;28;20033;-43
2022/12/01 08:16:40;;;;;;;57.60;37.13;;;5.30;92.00;;;;;;5037700;28;19905;-50
2022/12/01 08:19:09;;;;;;;56.90;37.30;;;5.30;92.00;;;;;;5054707;28;20037;-46
2022/12/01 08:21:36;;;;;;;61.92;40.20;;;5.30;91.90;;;;;;5039069;28;20025;-45
2022/12/01 08:24:03;;;;;;;65.00;41.08;;;5.30;91.70;;;;;;5035389;28;20037;-45
2022/12/01 08:26:33;;;;;;;71.57;45.22;;;5.30;91.70;;;;;;5044360;28;20025;-45
2022/12/01 08:28:59;;;;;;;77.63;45.83;;;5.20;91.50;;;;;;5053285;28;20021;-43
2022/12/01 08:31:29;;;;;;;75.03;46.03;;;5.20;91.70;;;;;;5032387;28;20044;-44
2022/12/01 08:33:56;;;;;;;73.10;46.97;;;5.30;91.70;;;;;;5047376;28;20465;-43
2022/12/01 08:36:23;;;;;;;77.72;47.15;;;5.20;91.50;;;;;;5052984;28;20068;-48
2022/12/01 08:38:53;;;;;;;70.20;44.03;;;5.20;91.70;;;;;;5036181;28;20101;-48
2022/12/01 08:41:20;;;;;;;;;;;5.30;91.60;;;;;;5035239;28;20035;-47
2022/12/01 08:43:49;;;;;;;75.55;44.13;;;5.30;91.50;;;;;;5054658;28;19920;-45
2022/12/01 08:46:16;;;;;;;81.15;44.63;;;5.30;91.60;;;;;;5052729;28;20707;-46
2022/12/01 08:48:42;;;;;;;71.47;45.20;;;5.40;91.60;;;;;;5032926;28;20485;-44
2022/12/01 08:51:14;;;;;;;76.15;47.88;;;5.30;91.30;;;;;;5035042;28;20027;-46
2022/12/01 08:53:46;;;;;;;69.57;45.83;;;5.40;91.40;;;;;;5052667;28;20415;-50
2022/12/01 08:56:20;;;;;;;83.97;47.80;;;5.40;91.20;;;;;;5017409;28;20044;-45
2022/12/01 08:58:47;;;;;;;87.65;49.05;;;5.40;91.30;;;;;;5032725;28;20452;-44
2022/12/01 09:01:15;;;;;;;81.13;50.22;;;5.40;91.10;;;;;;5023541;28;20026;-47
2022/12/01 09:03:42;;;;;;;79.32;47.40;;;5.40;91.30;;;;;;5034024;28;20124;-44
2022/12/01 09:06:14;;;;;;;83.18;49.05;;;5.40;91.00;;;;;;5030198;28;20032;-46
2022/12/01 09:08:40;;;;;;;82.95;49.75;;;5.40;90.80;;;;;;5032373;28;20179;-45
2022/12/01 09:11:12;;;;;;;75.38;47.13;;;5.30;90.80;;;;;;5035070;28;20422;-50
2022/12/01 09:13:40;;;;;;;78.30;47.15;;;5.40;90.90;;;;;;5016702;28;20037;-45
2022/12/01 09:16:11;;;;;;;74.00;46.20;;;5.40;90.70;;;;;;5024172;28;20021;-43
2022/12/01 09:18:37;;;;;;;71.78;45.95;;;5.40;90.60;;;;;;5027213;28;20041;-44
2022/12/01 09:21:21;;;;;;;71.15;45.03;;;5.50;90.40;;;;;;5031135;28;20029;-47
2022/12/01 09:23:49;;;;;;;65.22;43.65;;;5.50;90.50;;;;;;5013215;28;20034;-47
2022/12/01 09:26:18;;;;;;;78.07;47.97;;;5.50;90.20;;;;;;5013279;28;20022;-46
2022/12/01 09:28:47;;;;;;;82.40;48.38;;;5.50;89.90;;;;;;5021410;28;20107;-43
2022/12/01 09:31:15;;;;;;;75.90;46.73;;;5.50;89.80;;;;;;5032490;28;20694;-44
2022/12/01 09:33:43;;;;;;;74.45;46.72;;;5.40;89.70;;;;;;5029311;28;20061;-49
2022/12/01 09:36:10;;;;;;;66.97;44.33;;;5.50;90.00;;;;;;5031557;28;20040;-47
2022/12/01 09:38:38;;;;;;;66.15;43.95;;;5.50;89.90;;;;;;5031598;28;20112;-45
2022/12/01 09:41:21;;;;;;;71.05;45.30;;;5.50;90.00;;;;;;5031935;28;20029;-48
2022/12/01 09:43:57;;;;;;;70.63;44.20;;;5.60;90.00;;;;;;5032403;28;20025;-46
2022/12/01 09:46:32;;;;;;;69.88;45.08;;;5.70;90.20;;;;;;5028210;28;20450;-46
2022/12/01 09:49:01;;;;;;;70.13;43.70;;;5.70;90.20;;;;;;5017480;28;20359;-47
2022/12/01 09:51:29;;;;;;;73.43;45.45;;;5.70;89.60;;;;;;5023509;28;20045;-45
2022/12/01 09:53:58;;;;;;;72.95;46.22;;;5.60;89.60;;;;;;5032780;28;20076;-46
2022/12/01 09:56:54;;;;;;;68.25;44.78;;;5.70;89.90;;;;;;5047137;28;20360;-47
2022/12/01 09:59:23;;;;;;;73.13;44.25;;;5.70;89.70;;;;;;5038490;28;20029;-45
2022/12/01 10:02:17;;;;;;;70.82;44.70;;;5.80;89.80;;;;;;5040756;28;20121;-49
2022/12/01 10:04:47;;;;;;;70.45;43.95;;;5.80;89.90;;;;;;5031420;28;20120;-45
2022/12/01 10:07:18;;;;;;;75.40;45.92;;;5.80;89.90;;;;;;5017775;28;20033;-44
2022/12/01 10:09:55;;;;;;;68.47;43.72;;;5.60;89.50;;;;;;5033950;28;20044;-46
2022/12/01 10:12:27;;;;;;;71.72;44.78;;;5.70;89.90;;;;;;5052751;28;20055;-45
2022/12/01 10:15:19;;;;;;;69.15;42.50;;;5.50;89.60;;;;;;5046332;28;20031;-46
2022/12/01 10:18:09;;;;;;;74.50;46.30;;;5.50;89.90;;;;;;5037958;28;20110;-44
2022/12/01 10:21:06;;;;;;;67.80;44.75;;;5.50;90.10;;;;;;5045390;28;20033;-46
2022/12/01 10:24:09;;;;;;;73.68;44.78;;;5.60;90.30;;;;;;5050849;28;20458;-45
2022/12/01 10:26:47;;;;;;;70.85;42.63;;;5.60;90.40;;;;;;5033196;28;20443;-47
2022/12/01 10:29:48;;;;;;;73.63;44.42;;;5.60;89.90;;;;;;5035705;28;20034;-45
2022/12/01 10:32:31;;;;;;;66.70;42.03;;;5.60;89.70;;;;;;5049728;28;20025;-46
2022/12/01 10:34:58;;;;;;;65.10;40.65;;;5.60;89.80;;;;;;5051511;28;20024;-46
2022/12/01 10:37:30;;;;;;;68.75;43.95;;;5.60;89.60;;;;;;5039878;28;20105;-44
2022/12/01 10:40:01;;;;;;;63.60;41.30;;;5.60;89.10;;;;;;5031503;28;20143;-48
2022/12/01 10:42:46;;;;;;;67.78;41.80;;;5.70;89.30;;;;;;5039837;28;20116;-45
2022/12/01 10:45:34;;;;;;;67.40;42.50;;;5.70;89.30;;;;;;5051449;28;20025;-45
2022/12/01 10:48:09;;;;;;;63.17;40.97;;;5.80;89.40;;;;;;5050871;28;20078;-47
2022/12/01 10:50:36;;;;;;;65.55;40.53;;;5.90;88.70;;;;;;5034820;28;20107;-45
2022/12/01 10:53:03;;;;;;;64.80;38.83;;;6.00;88.10;;;;;;5052156;28;20021;-44
2022/12/01 10:55:37;;;;;;;61.97;40.10;;;6.00;87.90;;;;;;5056479;28;20045;-47
2022/12/01 10:58:13;;;;;;;63.15;41.88;;;6.10;87.90;;;;;;5033268;28;20029;-49
2022/12/01 11:00:43;;;;;;;61.92;42.60;;;6.10;87.80;;;;;;5034643;28;20029;-50
2022/12/01 11:03:22;;;;;;;68.88;44.78;;;6.10;87.60;;;;;;5033004;28;20332;-46
2022/12/01 11:05:58;;;;;;;58.97;40.28;;;6.10;87.40;;;;;;5040907;28;20157;-43
2022/12/01 11:08:35;;;;;;;69.13;43.90;;;6.20;87.70;;;;;;5032553;28;20075;-48
2022/12/01 11:11:02;;;;;;;61.70;41.55;;;6.10;87.10;;;;;;5050463;28;20104;-45
2022/12/01 11:13:43;;;;;;;63.25;40.78;;;6.10;87.30;;;;;;5045298;28;20102;-45
2022/12/01 11:16:48;;;;;;;65.13;41.47;;;6.00;87.30;;;;;;5047458;28;20037;-49
2022/12/01 11:19:32;;;;;;;62.80;40.40;;;6.00;87.60;;;;;;5048971;28;20029;-47
2022/12/01 11:22:01;;;;;;;62.55;40.65;;;6.00;87.50;;;;;;5049453;28;20025;-45
2022/12/01 11:24:55;;;;;;;65.30;41.10;;;5.90;87.80;;;;;;5032052;28;20044;-48
2022/12/01 11:27:29;;;;;;;63.78;39.83;;;6.00;87.90;;;;;;5036661;28;20098;-47
2022/12/01 11:30:05;;;;;;;70.97;41.13;;;6.00;87.80;;;;;;5034334;28;20328;-48
2022/12/01 11:32:39;;;;;;;65.40;42.15;;;5.90;87.70;;;;;;5032813;28;20091;-50
2022/12/01 11:35:20;;;;;;;64.38;41.00;;;5.90;87.40;;;;;;5036237;28;20340;-49
2022/12/01 11:37:53;;;;;;;61.25;40.38;;;5.90;87.80;;;;;;5037837;28;20029;-47
2022/12/01 11:40:25;;;;;;;59.33;37.42;;;6.10;88.00;;;;;;5062479;28;20067;-46
2022/12/01 11:42:56;;;;;;;59.15;39.20;;;6.20;87.80;;;;;;5056980;28;20032;-45
2022/12/01 11:45:38;;;;;;;53.80;37.92;;;6.20;86.90;;;;;;5037468;28;20047;-48
2022/12/01 11:48:19;;;;;;;58.05;40.08;;;6.20;87.00;;;;;;5057398;28;20031;-48
2022/12/01 11:51:28;;;;;;;57.50;37.60;;;6.30;86.80;;;;;;5042640;28;20346;-45
2022/12/01 11:54:14;;;;;;;68.83;40.37;;;6.20;86.30;;;;;;5048626;28;20063;-46
2022/12/01 11:56:46;;;;;;;54.80;36.50;;;6.30;86.60;;;;;;5072081;28;20040;-49
2022/12/01 11:59:19;;;;;;;60.53;37.45;;;6.30;86.80;;;;;;5037528;28;20407;-48
2022/12/01 12:02:16;;;;;;;55.38;38.30;;;6.30;86.70;;;;;;5047714;28;20029;-48
2022/12/01 12:05:33;;;;;;;56.83;36.28;;;6.20;86.40;;;;;;5052831;28;20377;-47
2022/12/01 12:08:15;;;;;;;51.53;35.20;;;6.20;86.50;;;;;;5053203;28;20017;-45
2022/12/01 12:11:03;;;;;;;57.85;37.10;;;6.20;86.70;;;;;;5051028;28;20021;-44
2022/12/01 12:13:56;;;;;;;61.17;36.03;;;6.10;86.10;;;;;;5052653;28;20118;-45
2022/12/01 12:16:55;;;;;;;53.45;35.20;;;6.00;85.70;;;;;;5035806;28;20032;-50
2022/12/01 12:19:42;;;;;;;53.33;37.47;;;6.00;86.00;;;;;;5038539;28;20453;-47
2022/12/01 12:22:44;;;;;;;54.22;36.80;;;5.90;86.10;;;;;;5054749;28;20029;-45
2022/12/01 12:25:25;;;;;;;56.72;37.97;;;6.00;86.10;;;;;;5039706;28;20043;-49
2022/12/01 12:28:12;;;;;;;58.85;37.05;;;5.90;86.40;;;;;;5036161;28;20428;-46
2022/12/01 12:31:07;;;;;;;50.80;35.03;;;5.90;86.20;;;;;;5055510;28;20166;-48
2022/12/01 12:34:13;;;;;;;57.08;36.00;;;5.90;86.40;;;;;;5051218;28;20033;-45
2022/12/01 12:36:56;;;;;;;50.28;33.63;;;5.90;86.40;;;;;;4991605;28;20042;-44
2022/12/01 12:40:17;;;;;;;61.90;36.20;;;5.90;86.40;;;;;;5051273;28;20033;-49
2022/12/01 12:43:02;;;;;;;54.35;36.92;;;5.80;86.00;;;;;;4973134;28;20427;-46
2022/12/01 12:46:04;;;;;;;58.08;35.55;;;5.80;86.00;;;;;;5042297;28;20127;-46
2022/12/01 12:49:08;;;;;;;50.78;33.25;;;5.70;86.20;;;;;;5054969;28;20025;-45
2022/12/01 12:51:39;;;;;;;55.80;36.22;;;5.70;86.20;;;;;;5060458;28;20033;-49
2022/12/01 12:54:26;;;;;;;55.13;36.08;;;5.60;86.10;;;;;;5041828;28;20135;-45
2022/12/01 12:57:05;;;;;;;52.05;33.53;;;5.60;86.00;;;;;;5045743;28;20124;-47
2022/12/01 12:59:59;;;;;;;56.60;33.65;;;5.60;85.70;;;;;;5040090;28;20035;-49
2022/12/01 13:02:31;;;;;;;49.67;32.75;;;5.70;86.20;;;;;;5044793;28;20025;-46
2022/12/01 13:05:15;;;;;;;52.42;33.67;;;5.70;86.20;;;;;;5053074;28;20078;-47
2022/12/01 13:07:56;;;;;;;53.40;33.28;;;5.70;86.00;;;;;;5051387;28;20115;-51
2022/12/01 13:10:53;;;;;;;48.63;31.02;;;5.70;85.80;;;;;;5036036;28;20096;-50
2022/12/01 13:13:43;;;;;;;49.53;32.78;;;5.80;85.90;;;;;;5049619;28;20025;-45
2022/12/01 13:16:21;;;;;;;46.45;29.13;;;5.80;85.20;;;;;;5051164;28;20149;-47
2022/12/01 13:18:52;;;;;;;52.33;32.88;;;5.80;85.20;;;;;;5050600;28;20025;-47
2022/12/01 13:21:21;;;;;;;49.63;29.65;;;5.70;85.00;;;;;;5051853;28;20055;-46